Time;durP1;ratioP1;P1;durP2;ratioP2;P2;SDS_P1;SDS_P2;PMS_P1;PMS_P2;Temp;Humidity;BMP_temperature;BMP_pressure;BME280_temperature;BME280_humidity;BME280_pressure;Samples;Min_cycle;Max_cycle;Signal;HPM_P1;HPM_P2
2022/07/11 00:02:10;;;;;;;3.70;2.80;;;;;;;18.02;89.04;96692.03;5037622;28;20219;-79
2022/07/11 00:04:37;;;;;;;3.00;2.63;;;;;;;18.03;89.32;96690.09;5028889;28;20226;-79
2022/07/11 00:07:05;;;;;;;3.03;2.73;;;;;;;17.96;89.32;96692.25;5043094;28;20198;-78
2022/07/11 00:09:33;;;;;;;3.00;2.70;;;;;;;17.93;89.89;96685.44;5032467;28;20284;-79
2022/07/11 00:12:01;;;;;;;4.37;2.90;;;;;;;17.97;89.46;96694.72;5035027;28;20206;-78
2022/07/11 00:14:28;;;;;;;3.30;2.70;;;;;;;18.02;89.66;96689.28;5032041;28;20236;-78
2022/07/11 00:16:56;;;;;;;3.13;2.83;;;;;;;18.08;89.37;96693.66;5043693;28;20207;-79
2022/07/11 00:19:24;;;;;;;3.27;2.50;;;;;;;18.08;89.45;96693.66;5033730;28;20205;-78
2022/07/11 00:21:52;;;;;;;3.20;2.90;;;;;;;18.08;89.74;96693.66;5043346;28;20213;-78
2022/07/11 00:24:20;;;;;;;3.83;2.60;;;;;;;18.05;89.74;96693.38;5039869;28;20234;-79
2022/07/11 00:26:49;;;;;;;4.93;3.07;;;;;;;18.03;89.31;96688.16;5034449;28;20226;-79
2022/07/11 00:29:16;;;;;;;3.63;2.63;;;;;;;17.97;90.20;96689.25;5066119;28;20232;-78
2022/07/11 00:31:43;;;;;;;3.00;2.70;;;;;;;17.83;91.66;96679.94;5036808;28;20195;-78
2022/07/11 00:34:11;;;;;;;3.50;3.20;;;;;;;17.84;91.91;96684.31;5036982;28;20257;-79
2022/07/11 00:36:38;;;;;;;4.53;3.23;;;;;;;17.77;91.81;96675.53;5037658;28;20298;-78
2022/07/11 00:39:05;;;;;;;3.30;2.97;;;;;;;17.72;90.47;96678.25;5038291;28;20214;-78
2022/07/11 00:41:33;;;;;;;3.83;3.00;;;;;;;17.58;91.60;96680.63;5032159;28;20667;-78
2022/07/11 00:44:02;;;;;;;4.30;2.93;;;;;;;17.47;92.73;96678.09;5031011;28;20194;-79
2022/07/11 00:46:30;;;;;;;3.27;2.97;;;;;;;17.36;93.84;96666.31;5042376;28;20211;-78
2022/07/11 00:48:58;;;;;;;4.43;2.77;;;;;;;17.37;94.38;96666.03;5033249;28;20203;-78
2022/07/11 00:51:26;;;;;;;5.30;2.90;;;;;;;17.35;94.49;96683.78;5029832;28;20202;-78
2022/07/11 00:53:55;;;;;;;3.00;2.80;;;;;;;17.28;94.88;96670.38;5031940;28;20207;-78
2022/07/11 00:56:24;;;;;;;3.70;3.23;;;;;;;17.38;94.55;96664.97;5036225;28;20240;-79
2022/07/11 00:58:53;;;;;;;3.20;2.90;;;;;;;17.29;94.82;96676.66;5037912;28;20207;-78
2022/07/11 01:01:22;;;;;;;3.20;2.90;;;;;;;17.26;95.85;96667.09;5033900;28;20225;-79
2022/07/11 01:03:49;;;;;;;4.53;3.27;;;;;;;17.26;96.50;96675.28;5040534;28;20207;-78
2022/07/11 01:06:16;;;;;;;3.73;2.77;;;;;;;17.23;96.27;96688.63;5033873;28;20310;-79
2022/07/11 01:08:45;;;;;;;3.70;3.37;;;;;;;17.26;96.02;96682.66;5036044;28;20211;-79
2022/07/11 01:11:15;;;;;;;4.83;2.93;;;;;;;17.28;96.49;96680.47;5033776;28;20210;-79
2022/07/11 01:13:43;;;;;;;3.27;2.83;;;;;;;17.29;97.42;96682.94;5037600;28;20211;-78
2022/07/11 01:16:13;;;;;;;2.80;2.53;;;;;;;17.21;98.28;96679.88;5029190;28;20236;-79
2022/07/11 01:18:44;;;;;;;3.27;2.80;;;;;;;17.18;98.75;96680.41;5027498;28;20213;-78
2022/07/11 01:21:24;;;;;;;4.83;2.80;;;;;;;17.21;99.09;96688.88;5038346;28;20210;-79
2022/07/11 01:23:54;;;;;;;3.20;2.90;;;;;;;17.24;98.15;96684.81;5037811;28;20344;-78
2022/07/11 01:26:23;;;;;;;3.20;2.90;;;;;;;17.29;98.46;96690.28;5028389;28;20226;-78
2022/07/11 01:28:50;;;;;;;4.57;3.00;;;;;;;17.33;97.64;96684.06;5061312;28;20221;-78
2022/07/11 01:31:17;;;;;;;2.93;2.73;;;;;;;17.41;98.09;96693.66;5043712;28;20258;-79
2022/07/11 01:33:45;;;;;;;2.97;2.67;;;;;;;17.45;97.82;96688.47;5037971;28;20606;-78
2022/07/11 01:36:12;;;;;;;5.07;3.03;;;;;;;17.42;97.61;96692.56;5032541;28;20209;-79
2022/07/11 01:38:40;;;;;;;5.20;3.17;;;;;;;17.39;98.15;96696.63;5040180;28;20279;-79
2022/07/11 01:41:08;;;;;;;4.30;3.17;;;;;;;17.30;97.25;96695.50;5031672;28;20234;-78
2022/07/11 01:43:35;;;;;;;3.70;3.27;;;;;;;17.23;97.58;96686.72;5030023;28;20207;-78
2022/07/11 01:46:02;;;;;;;3.30;3.00;;;;;;;17.23;99.18;96694.09;5029551;28;20268;-79
2022/07/11 01:48:29;;;;;;;3.63;3.23;;;;;;;17.18;98.06;96696.78;5035761;28;20214;-79
2022/07/11 01:50:57;;;;;;;3.17;2.97;;;;;;;17.16;98.89;96694.31;5065863;28;20218;-78
2022/07/11 01:53:24;;;;;;;3.10;2.80;;;;;;;17.13;99.51;96696.75;5042731;28;20210;-79
2022/07/11 01:55:51;;;;;;;3.57;3.10;;;;;;;17.12;99.57;96695.91;5071765;28;20237;-78
2022/07/11 01:58:20;;;;;;;4.27;3.13;;;;;;;16.95;98.87;96693.34;5037329;28;20295;-78
2022/07/11 02:00:47;;;;;;;3.10;2.80;;;;;;;16.73;100.00;96694.56;5032628;28;20203;-78
2022/07/11 02:03:14;;;;;;;4.43;2.83;;;;;;;16.69;100.00;96683.34;5062595;28;20209;-78
2022/07/11 02:05:41;;;;;;;5.10;2.90;;;;;;;16.63;100.00;96692.56;5030644;28;20235;-79
2022/07/11 02:08:14;;;;;;;2.83;2.63;;;;;;;16.49;100.00;96686.72;5032671;28;20214;-78
2022/07/11 02:10:44;;;;;;;3.43;3.13;;;;;;;16.30;100.00;96690.88;5026866;28;20198;-78
2022/07/11 02:13:12;;;;;;;4.20;3.53;;;;;;;16.01;100.00;96684.03;5032683;28;20206;-78
2022/07/11 02:15:42;;;;;;;4.10;3.70;;;;;;;15.88;100.00;96682.56;5036833;28;20210;-78
2022/07/11 02:18:10;;;;;;;3.73;3.37;;;;;;;15.86;100.00;96682.81;5066966;28;20297;-78
2022/07/11 02:20:37;;;;;;;3.73;3.40;;;;;;;15.95;100.00;96682.34;5032960;28;20213;-79
2022/07/11 02:23:05;;;;;;;5.37;3.60;;;;;;;16.00;100.00;96666.88;5069810;28;20210;-78
2022/07/11 02:25:34;;;;;;;4.07;3.17;;;;;;;16.11;100.00;96668.63;5036604;28;20231;-78
2022/07/11 02:28:01;;;;;;;4.67;3.20;;;;;;;16.18;100.00;96669.22;5032565;28;20234;-79
2022/07/11 02:30:29;;;;;;;4.80;3.23;;;;;;;16.11;100.00;96668.63;5029922;28;20218;-78
2022/07/11 02:32:57;;;;;;;4.10;3.60;;;;;;;15.98;100.00;96670.94;5036886;28;20263;-78
2022/07/11 02:35:24;;;;;;;3.70;3.40;;;;;;;15.92;100.00;96663.78;5036413;28;20206;-78
2022/07/11 02:37:51;;;;;;;4.00;3.30;;;;;;;15.89;100.00;96660.50;5039556;28;20329;-79
2022/07/11 02:40:18;;;;;;;4.10;3.50;;;;;;;15.88;100.00;96658.88;5044433;28;20198;-78
2022/07/11 02:42:46;;;;;;;3.63;3.33;;;;;;;15.90;100.00;96661.34;5041801;28;20213;-79
2022/07/11 02:45:13;;;;;;;4.10;3.47;;;;;;;15.95;100.00;96666.81;5039653;28;20241;-78
2022/07/11 02:47:42;;;;;;;3.77;3.23;;;;;;;16.01;100.00;96659.50;5040637;28;20309;-78
2022/07/11 02:50:12;;;;;;;4.47;3.53;;;;;;;15.95;100.00;96660.56;5034772;28;20203;-79
2022/07/11 02:52:41;;;;;;;3.40;3.10;;;;;;;15.94;100.00;96667.06;5037044;28;20296;-79
2022/07/11 02:55:09;;;;;;;4.03;3.60;;;;;;;15.83;100.00;96666.13;5034657;28;20218;-78
2022/07/11 02:57:38;;;;;;;4.10;3.63;;;;;;;15.78;100.00;96660.66;5043869;28;20233;-78
2022/07/11 03:00:07;;;;;;;4.87;3.70;;;;;;;15.80;100.00;96670.22;5043946;28;20218;-78
2022/07/11 03:02:34;;;;;;;4.57;3.77;;;;;;;15.78;100.00;96668.81;5063635;28;20230;-78
2022/07/11 03:05:01;;;;;;;4.30;3.60;;;;;;;15.76;100.00;96673.69;5044907;28;20222;-78
2022/07/11 03:07:29;;;;;;;4.33;3.30;;;;;;;15.82;100.00;96665.31;5041863;28;20202;-78
2022/07/11 03:09:57;;;;;;;3.37;3.07;;;;;;;15.77;100.00;96668.00;5041288;28;20202;-78
2022/07/11 03:12:24;;;;;;;3.67;3.37;;;;;;;15.78;100.00;96669.63;5036350;28;20207;-78
2022/07/11 03:14:51;;;;;;;3.83;3.23;;;;;;;15.74;100.00;96662.22;5068066;28;20200;-78
2022/07/11 03:17:19;;;;;;;3.83;3.20;;;;;;;15.69;100.00;96663.00;5034833;28;20210;-79
2022/07/11 03:19:46;;;;;;;5.00;3.70;;;;;;;15.61;100.00;96660.72;5035747;28;20293;-78
2022/07/11 03:22:14;;;;;;;5.93;3.50;;;;;;;15.64;100.00;96662.13;5041170;28;20206;-78
2022/07/11 03:24:42;;;;;;;5.23;3.50;;;;;;;15.50;100.00;96664.38;5032051;28;20202;-78
2022/07/11 03:27:10;;;;;;;3.73;3.43;;;;;;;15.50;100.00;96661.63;5069207;28;20329;-78
2022/07/11 03:29:37;;;;;;;3.50;3.20;;;;;;;15.48;100.00;96661.88;5062154;28;20211;-79
2022/07/11 03:32:05;;;;;;;4.17;3.30;;;;;;;15.48;100.00;96659.16;5045070;28;20198;-78
2022/07/11 03:34:32;;;;;;;3.97;3.23;;;;;;;15.52;100.00;96662.22;5070805;28;20214;-78
2022/07/11 03:36:59;;;;;;;4.87;3.47;;;;;;;15.52;100.00;96651.34;5037992;28;20358;-78
2022/07/11 03:39:26;;;;;;;4.97;3.50;;;;;;;15.49;100.00;96660.00;5037987;28;20206;-78
2022/07/11 03:41:55;;;;;;;4.03;3.10;;;;;;;15.50;100.00;96653.47;5038712;28;20199;-78
2022/07/11 03:44:22;;;;;;;5.40;3.60;;;;;;;15.60;100.00;96658.25;5032679;28;20215;-78
2022/07/11 03:46:49;;;;;;;3.43;3.13;;;;;;;15.63;100.00;96655.84;5046472;28;20230;-78
2022/07/11 03:49:16;;;;;;;3.87;3.47;;;;;;;15.58;100.00;96654.97;5040771;28;20211;-78
2022/07/11 03:51:43;;;;;;;3.93;3.30;;;;;;;15.55;100.00;96656.31;5032992;28;20199;-79
2022/07/11 03:54:11;;;;;;;4.47;3.70;;;;;;;15.57;100.00;96651.41;5036616;28;20203;-78
2022/07/11 03:56:38;;;;;;;3.90;3.60;;;;;;;15.54;100.00;96643.78;5038447;28;20219;-78
2022/07/11 03:59:06;;;;;;;4.17;3.47;;;;;;;15.61;100.00;96649.00;5063718;28;20210;-78
2022/07/11 04:01:33;;;;;;;3.73;3.37;;;;;;;15.53;100.00;96650.25;5052906;28;20215;-78
2022/07/11 04:04:00;;;;;;;4.90;3.20;;;;;;;15.37;100.00;96653.88;5034607;28;20223;-78
2022/07/11 04:06:27;;;;;;;10.23;3.70;;;;;;;15.33;100.00;96648.09;5061327;28;20231;-78
2022/07/11 04:08:55;;;;;;;4.40;3.63;;;;;;;15.41;100.00;96652.28;5040841;28;20202;-78
2022/07/11 04:11:22;;;;;;;5.37;3.63;;;;;;;15.38;100.00;96650.06;5044454;28;20264;-78
2022/07/11 04:13:49;;;;;;;3.90;3.40;;;;;;;15.43;100.00;96641.97;5035422;28;20194;-78
2022/07/11 04:16:17;;;;;;;3.80;3.40;;;;;;;15.54;100.00;96651.94;5040145;28;20299;-78
2022/07/11 04:18:44;;;;;;;5.17;3.90;;;;;;;15.60;100.00;96652.81;5037283;28;20258;-78
2022/07/11 04:21:12;;;;;;;4.47;3.37;;;;;;;15.56;100.00;96657.97;5040451;28;20214;-78
2022/07/11 04:23:39;;;;;;;3.70;3.33;;;;;;;15.60;100.00;96653.63;5069871;28;20278;-78
2022/07/11 04:26:06;;;;;;;3.67;3.20;;;;;;;15.61;100.00;96665.34;5043526;28;20245;-77
2022/07/11 04:28:33;;;;;;;4.83;3.80;;;;;;;15.51;100.00;96664.13;5030623;28;20245;-79
2022/07/11 04:31:00;;;;;;;4.50;3.80;;;;;;;15.55;100.00;96669.09;5034225;28;20210;-78
2022/07/11 04:33:29;;;;;;;4.07;3.33;;;;;;;15.50;100.00;96659.75;5037101;28;20542;-78
2022/07/11 04:35:56;;;;;;;3.43;3.20;;;;;;;15.56;100.00;96665.28;5032869;28;20198;-79
2022/07/11 04:38:23;;;;;;;7.50;4.10;;;;;;;15.53;100.00;96663.88;5036511;28;20210;-78
2022/07/11 04:40:51;;;;;;;3.63;3.33;;;;;;;15.50;100.00;96664.38;5036590;28;20201;-79
2022/07/11 04:43:18;;;;;;;3.50;3.20;;;;;;;15.47;100.00;96665.72;5066249;28;20210;-78
2022/07/11 04:45:45;;;;;;;5.37;3.57;;;;;;;15.44;100.00;96663.50;5034373;28;20239;-79
2022/07/11 04:48:12;;;;;;;3.37;3.03;;;;;;;15.50;100.00;96664.38;5035316;28;20265;-79
2022/07/11 04:50:43;;;;;;;4.13;3.57;;;;;;;15.48;100.00;96655.66;5030653;28;20207;-79
2022/07/11 04:53:11;;;;;;;4.40;3.63;;;;;;;15.50;100.00;96658.91;5048763;28;20221;-79
2022/07/11 04:55:40;;;;;;;4.73;3.33;;;;;;;15.55;100.00;96656.31;5039498;28;20223;-79
2022/07/11 04:58:09;;;;;;;3.93;3.50;;;;;;;15.55;100.00;96656.31;5032362;28;20203;-78
2022/07/11 05:00:36;;;;;;;4.97;3.63;;;;;;;15.52;100.00;96649.44;5037081;28;20264;-79
2022/07/11 05:03:03;;;;;;;4.23;3.57;;;;;;;15.60;100.00;96656.34;5031290;28;20228;-79
2022/07/11 05:05:30;;;;;;;4.67;3.80;;;;;;;15.55;100.00;96659.03;5040055;28;20229;-79
2022/07/11 05:07:59;;;;;;;6.10;3.10;;;;;;;15.49;100.00;96668.97;5033270;28;20213;-78
2022/07/11 05:10:26;;;;;;;6.47;3.70;;;;;;;15.35;100.00;96658.75;5051535;28;20270;-79
2022/07/11 05:12:53;;;;;;;4.77;3.70;;;;;;;15.37;100.00;96664.75;5033415;28;20305;-79
2022/07/11 05:15:20;;;;;;;4.53;3.70;;;;;;;15.32;100.00;96656.50;5048933;28;20210;-79
2022/07/11 05:17:47;;;;;;;4.07;3.50;;;;;;;15.38;100.00;96672.66;5028794;28;20202;-79
2022/07/11 05:20:14;;;;;;;4.17;3.77;;;;;;;15.41;100.00;96672.16;5033394;28;20187;-79
2022/07/11 05:22:41;;;;;;;3.87;3.53;;;;;;;15.54;100.00;96676.44;5030087;28;20267;-78
2022/07/11 05:25:10;;;;;;;3.47;3.17;;;;;;;15.49;100.00;96676.31;5037707;28;20210;-79
2022/07/11 05:27:37;;;;;;;5.97;3.77;;;;;;;15.44;100.00;96665.38;5035339;28;20331;-78
2022/07/11 05:30:05;;;;;;;3.83;3.43;;;;;;;15.42;100.00;96671.06;5041682;28;20208;-78
2022/07/11 05:32:32;;;;;;;4.60;3.53;;;;;;;15.44;100.00;96676.28;5036768;28;20215;-78
2022/07/11 05:35:01;;;;;;;4.00;3.60;;;;;;;15.36;100.00;96676.72;5040354;28;20241;-78
2022/07/11 05:37:29;;;;;;;6.47;3.97;;;;;;;15.37;100.00;96670.19;5052542;28;20237;-78
2022/07/11 05:39:56;;;;;;;3.63;3.33;;;;;;;15.40;100.00;96664.22;5028012;28;20199;-78
2022/07/11 05:42:24;;;;;;;4.23;3.83;;;;;;;15.41;100.00;96665.88;5032951;28;20304;-78
2022/07/11 05:44:51;;;;;;;5.73;4.10;;;;;;;15.32;100.00;96675.56;5031918;28;20217;-78
2022/07/11 05:47:19;;;;;;;4.83;3.97;;;;;;;15.23;100.00;96674.34;5033936;28;20325;-78
2022/07/11 05:49:45;;;;;;;5.40;3.80;;;;;;;15.21;100.00;96671.06;5043518;28;20240;-78
2022/07/11 05:52:13;;;;;;;8.43;6.07;;;;;;;15.22;100.00;96675.44;5035416;28;20237;-78
2022/07/11 05:54:40;;;;;;;4.33;3.93;;;;;;;15.15;100.00;96676.44;5027583;28;20203;-78
2022/07/11 05:57:07;;;;;;;8.10;4.50;;;;;;;15.11;100.00;96675.31;5064217;28;20230;-78
2022/07/11 05:59:37;;;;;;;5.10;4.17;;;;;;;15.18;100.00;96680.56;5070022;28;20210;-78
2022/07/11 06:02:04;;;;;;;5.10;3.90;;;;;;;15.23;100.00;96664.28;5035887;28;20209;-78
2022/07/11 06:04:33;;;;;;;4.17;3.83;;;;;;;15.31;100.00;96673.94;5032206;28;20203;-78
2022/07/11 06:07:00;;;;;;;6.03;3.93;;;;;;;15.33;100.00;96690.81;5036101;28;20326;-78
2022/07/11 06:09:27;;;;;;;10.63;5.87;;;;;;;15.27;100.00;96680.94;5035689;28;20221;-78
2022/07/11 06:11:54;;;;;;;10.00;4.87;;;;;;;15.31;100.00;96682.88;5035109;28;20202;-78
2022/07/11 06:14:22;;;;;;;10.37;4.93;;;;;;;15.33;100.00;96677.19;5042131;28;20216;-78
2022/07/11 06:16:50;;;;;;;7.57;4.77;;;;;;;15.37;100.00;96684.63;5035470;28;20209;-78
2022/07/11 06:19:18;;;;;;;5.57;4.50;;;;;;;15.38;100.00;96672.66;5034523;28;20213;-78
2022/07/11 06:21:45;;;;;;;5.50;3.80;;;;;;;15.47;100.00;96675.78;5044820;28;20213;-78
2022/07/11 06:24:12;;;;;;;5.97;4.70;;;;;;;15.50;100.00;96669.81;5035094;28;20246;-78
2022/07/11 06:26:39;;;;;;;4.20;3.80;;;;;;;15.54;100.00;96675.59;5038230;28;20223;-78
2022/07/11 06:29:07;;;;;;;5.00;3.70;;;;;;;15.51;100.00;96677.72;5035504;28;20199;-78
2022/07/11 06:31:34;;;;;;;5.80;4.33;;;;;;;15.54;100.00;96681.88;5040013;28;20198;-75
2022/07/11 06:34:03;;;;;;;5.37;3.87;;;;;;;15.59;100.00;96689.28;5042087;28;20330;-76
2022/07/11 06:36:30;;;;;;;5.03;3.30;;;;;;;15.64;100.00;96689.34;5031096;28;20221;-77
2022/07/11 06:38:57;;;;;;;4.53;4.13;;;;;;;15.64;100.00;96692.91;5038966;28;20209;-76
2022/07/11 06:41:24;;;;;;;4.20;3.80;;;;;;;15.66;100.00;96693.44;5036780;28;20264;-75
2022/07/11 06:43:51;;;;;;;3.77;3.30;;;;;;;15.67;100.00;96691.53;5045710;28;20209;-76
2022/07/11 06:46:18;;;;;;;4.40;3.43;;;;;;;15.59;100.00;96683.81;5037594;28;20226;-75
2022/07/11 06:48:45;;;;;;;4.10;3.70;;;;;;;15.49;100.00;96695.38;5032502;28;20199;-75
2022/07/11 06:51:14;;;;;;;5.60;3.90;;;;;;;15.36;100.00;96696.59;5018041;28;20206;-76
2022/07/11 06:53:41;;;;;;;4.50;4.07;;;;;;;15.33;100.00;96698.97;5061788;28;20218;-75
2022/07/11 06:56:08;;;;;;;4.00;3.60;;;;;;;15.38;100.00;96705.31;5037909;28;20226;-75
2022/07/11 06:58:35;;;;;;;5.10;3.73;;;;;;;15.41;100.00;96687.66;5043178;28;20206;-75
2022/07/11 07:01:03;;;;;;;4.00;3.37;;;;;;;15.47;100.00;96698.38;5037708;28;20206;-75
2022/07/11 07:03:32;;;;;;;3.30;3.00;;;;;;;15.52;100.00;96697.59;5043581;28;20198;-76
2022/07/11 07:05:59;;;;;;;4.20;3.47;;;;;;;15.60;100.00;96697.19;5039150;28;20244;-76
2022/07/11 07:08:29;;;;;;;3.80;3.17;;;;;;;15.61;100.00;96687.13;5065956;28;20226;-75
2022/07/11 07:10:57;;;;;;;7.23;3.77;;;;;;;15.65;100.00;96693.72;5071508;28;20199;-75
2022/07/11 07:13:25;;;;;;;3.77;3.47;;;;;;;15.71;100.00;96693.53;5033841;28;20209;-76
2022/07/11 07:15:53;;;;;;;7.40;3.80;;;;;;;15.79;100.00;96690.34;5066143;28;20300;-76
2022/07/11 07:18:20;;;;;;;5.13;3.53;;;;;;;15.73;100.00;96680.47;5051624;28;20279;-76
2022/07/11 07:20:47;;;;;;;4.80;3.40;;;;;;;15.88;100.00;96683.38;5066561;28;20210;-76
2022/07/11 07:23:15;;;;;;;3.87;3.50;;;;;;;16.45;100.00;96682.00;5041742;28;20210;-78
2022/07/11 07:25:43;;;;;;;4.43;3.30;;;;;;;16.97;100.00;96685.75;5064069;28;20313;-78
2022/07/11 07:28:10;;;;;;;6.60;3.50;;;;;;;17.43;100.00;96675.09;5038423;28;20235;-78
2022/07/11 07:30:37;;;;;;;3.60;3.10;;;;;;;17.86;100.00;96682.13;5032949;28;20210;-78
2022/07/11 07:33:05;;;;;;;3.13;2.83;;;;;;;18.10;100.00;96686.03;5033941;28;20206;-78
2022/07/11 07:35:32;;;;;;;3.13;2.83;;;;;;;18.44;100.00;96671.88;5060027;28;20251;-78
2022/07/11 07:38:00;;;;;;;3.47;3.17;;;;;;;18.92;99.34;96677.91;5030538;28;20206;-78
2022/07/11 07:40:27;;;;;;;3.17;2.83;;;;;;;19.26;97.37;96673.47;5039177;28;20298;-78
2022/07/11 07:42:56;;;;;;;4.97;3.10;;;;;;;19.47;90.78;96672.34;5063743;28;20214;-78
2022/07/11 07:45:23;;;;;;;3.27;2.90;;;;;;;19.69;90.21;96663.78;5034312;28;20203;-78
2022/07/11 07:47:50;;;;;;;2.70;2.50;;;;;;;19.24;90.41;96661.97;5033608;28;20214;-78
2022/07/11 07:50:17;;;;;;;3.40;3.00;;;;;;;19.01;91.12;96654.34;5046752;28;20299;-78
2022/07/11 07:52:45;;;;;;;4.13;2.70;;;;;;;19.05;91.61;96652.72;5040140;28;20209;-78
2022/07/11 07:55:12;;;;;;;3.13;2.83;;;;;;;19.50;89.13;96660.00;5050026;28;20202;-78
2022/07/11 07:57:39;;;;;;;5.80;3.58;;;;;;;19.82;84.75;96659.63;5050546;28;20313;-78
2022/07/11 08:02:54;;;;;;;6.22;3.40;;;;;;;20.59;81.60;96664.34;5055055;28;20201;-79
2022/07/11 08:05:21;;;;;;;4.90;3.30;;;;;;;20.91;80.09;96655.59;5038605;28;20209;-78
2022/07/11 08:07:48;;;;;;;7.53;2.90;;;;;;;20.80;81.36;96661.44;5041443;28;20221;-78
2022/07/11 08:10:15;;;;;;;4.38;3.08;;;;;;;21.07;79.59;96659.00;5046289;28;20205;-78
2022/07/11 08:12:43;;;;;;;6.55;3.10;;;;;;;21.38;77.84;96659.53;5039975;28;20211;-78
2022/07/11 08:15:12;;;;;;;5.60;3.50;;;;;;;21.44;75.47;96658.34;5043309;28;20206;-78
2022/07/11 08:17:41;;;;;;;5.55;3.17;;;;;;;21.47;74.75;96663.28;5043992;28;20198;-78
2022/07/11 08:20:09;;;;;;;6.95;2.92;;;;;;;21.56;76.45;96664.28;5033849;28;20217;-78
2022/07/11 08:22:36;;;;;;;4.70;2.90;;;;;;;21.60;75.93;96648.84;5035273;28;20207;-78
2022/07/11 08:25:04;;;;;;;4.32;3.60;;;;;;;21.66;76.08;96655.09;5063393;28;20203;-78
2022/07/11 08:27:31;;;;;;;4.95;3.08;;;;;;;21.86;76.00;96652.91;5032706;28;20249;-78
2022/07/11 08:29:58;;;;;;;4.10;2.63;;;;;;;21.92;74.19;96644.59;5030025;28;20199;-78
2022/07/11 08:32:27;;;;;;;4.63;2.72;;;;;;;22.00;74.13;96639.28;5033998;28;20190;-79
2022/07/11 08:34:55;;;;;;;4.15;2.78;;;;;;;21.81;74.31;96647.47;5034079;28;20348;-78
2022/07/11 08:37:22;;;;;;;2.88;2.58;;;;;;;21.98;73.83;96647.00;5033544;28;20206;-78
2022/07/11 08:39:49;;;;;;;5.10;2.60;;;;;;;22.02;75.10;96644.50;5029443;28;20206;-78
2022/07/11 08:42:19;;;;;;;6.50;2.90;;;;;;;22.11;73.88;96648.22;5042393;28;20297;-78
2022/07/11 08:44:47;;;;;;;5.32;2.78;;;;;;;22.18;72.28;96640.41;5044339;28;20214;-78
2022/07/11 08:47:14;;;;;;;4.50;2.75;;;;;;;22.24;72.15;96644.72;5035402;28;20313;-78
2022/07/11 08:49:45;;;;;;;3.88;2.65;;;;;;;22.26;73.23;96637.00;5063157;28;20217;-78
2022/07/11 08:52:16;;;;;;;3.33;2.65;;;;;;;22.40;72.09;96629.63;5037056;28;20199;-79
2022/07/11 08:54:43;;;;;;;4.68;2.70;;;;;;;22.44;70.87;96636.19;5038996;28;20272;-78
2022/07/11 08:57:11;;;;;;;3.97;2.80;;;;;;;22.51;70.66;96625.59;5041351;28;20229;-78
2022/07/11 08:59:41;;;;;;;3.90;2.50;;;;;;;22.52;69.97;96629.16;5032955;28;20293;-79
2022/07/11 09:02:10;;;;;;;3.58;2.63;;;;;;;22.35;71.41;96618.72;5053876;28;20213;-78
2022/07/11 09:04:37;;;;;;;5.40;2.67;;;;;;;22.26;70.63;96623.25;5063439;28;20279;-78
2022/07/11 09:07:06;;;;;;;3.25;2.55;;;;;;;22.33;72.84;96626.44;5039748;28;20314;-78
2022/07/11 09:09:34;;;;;;;4.47;2.88;;;;;;;22.32;70.46;96624.78;5036233;28;20199;-78
2022/07/11 09:12:01;;;;;;;4.38;2.42;;;;;;;22.50;72.26;96628.66;5029905;28;20228;-78
2022/07/11 09:14:29;;;;;;;4.85;2.60;;;;;;;22.55;71.54;96625.81;5032868;28;20210;-78
2022/07/11 09:16:58;;;;;;;4.18;2.83;;;;;;;22.65;70.79;96623.72;5064454;28;20268;-78
2022/07/11 09:19:26;;;;;;;7.25;2.95;;;;;;;22.72;68.55;96619.75;5034758;28;20198;-79
2022/07/11 09:25:23;;;;;;;3.17;2.50;;;;;;;23.08;68.77;96622.72;5038388;28;20352;-79
2022/07/11 09:27:53;;;;;;;3.75;2.72;;;;;;;23.07;67.60;96619.16;5055320;28;20242;-79
2022/07/11 09:30:27;;;;;;;2.97;2.40;;;;;;;23.23;67.54;96617.75;5071201;28;20190;-79
2022/07/11 09:32:56;;;;;;;4.28;2.47;;;;;;;23.31;67.39;96622.53;5034947;28;20206;-79
2022/07/11 09:35:25;;;;;;;5.95;2.85;;;;;;;23.12;67.90;96610.81;5032517;28;20206;-79
2022/07/11 09:37:52;;;;;;;2.50;2.30;;;;;;;23.23;68.60;96612.22;5038047;28;20203;-79
2022/07/11 09:40:22;;;;;;;3.72;3.00;;;;;;;23.33;66.73;96616.75;5070657;28;20202;-79
2022/07/11 09:42:54;;;;;;;4.70;2.83;;;;;;;23.19;66.95;96615.91;5050794;28;20195;-79
2022/07/11 09:45:24;;;;;;;5.55;2.80;;;;;;;23.20;66.89;96617.56;5037887;28;20306;-79
2022/07/11 09:47:52;;;;;;;3.90;2.58;;;;;;;23.23;68.11;96617.75;5031742;28;20221;-79
2022/07/11 09:50:20;;;;;;;5.60;2.80;;;;;;;23.40;65.95;96617.16;5037108;28;20209;-79
2022/07/11 09:53:02;;;;;;;6.00;2.70;;;;;;;23.37;64.48;96610.31;5040027;28;20230;-79
2022/07/11 09:55:32;;;;;;;3.03;2.63;;;;;;;23.29;65.41;96613.78;5032823;28;20603;-79
2022/07/11 09:57:59;;;;;;;2.97;2.67;;;;;;;23.29;66.30;96610.22;5034816;28;20202;-79
2022/07/11 10:00:26;;;;;;;3.67;2.70;;;;;;;23.40;64.81;96615.22;5024610;28;20201;-79
2022/07/11 10:02:55;;;;;;;3.67;2.53;;;;;;;23.21;64.43;96609.00;5034709;28;20438;-79
2022/07/11 10:05:22;;;;;;;3.42;2.50;;;;;;;23.26;66.28;96608.06;5034790;28;20227;-79
2022/07/11 10:07:50;;;;;;;5.15;2.70;;;;;;;23.25;65.15;96607.25;5027042;28;20274;-79
2022/07/11 10:10:17;;;;;;;3.05;2.50;;;;;;;23.45;65.44;96595.00;5015951;28;20203;-79
2022/07/11 10:12:47;;;;;;;3.78;2.65;;;;;;;23.61;65.71;96607.38;5022932;28;20222;-79
2022/07/11 10:15:17;;;;;;;2.80;2.50;;;;;;;23.57;64.11;96603.59;5031570;28;20211;-79
2022/07/11 10:17:55;;;;;;;3.88;2.38;;;;;;;23.56;65.86;96592.91;5016397;28;20215;-79
2022/07/11 10:20:31;;;;;;;7.32;2.88;;;;;;;23.80;65.95;96607.28;5032662;28;20227;-79
2022/07/11 10:23:09;;;;;;;3.58;2.60;;;;;;;23.80;65.93;96600.94;5020578;28;20203;-79
2022/07/11 10:25:42;;;;;;;3.60;2.40;;;;;;;23.66;63.85;96601.75;5017177;28;20238;-79
2022/07/11 10:28:26;;;;;;;4.43;2.40;;;;;;;23.83;62.81;96595.59;5018294;28;20234;-79
2022/07/11 10:30:55;;;;;;;4.35;2.40;;;;;;;23.92;64.33;96593.75;5049203;28;20225;-79
2022/07/11 10:33:23;;;;;;;5.38;2.30;;;;;;;24.13;63.10;96599.66;5017151;28;20202;-79
2022/07/11 10:35:52;;;;;;;5.00;2.42;;;;;;;24.12;64.11;96590.56;5024021;28;20298;-79
2022/07/11 10:38:20;;;;;;;3.47;2.30;;;;;;;24.18;63.30;96587.66;5019487;28;20203;-79
2022/07/11 10:40:50;;;;;;;2.72;2.40;;;;;;;24.14;64.60;96585.53;5017229;28;20298;-79
2022/07/11 10:43:36;;;;;;;2.90;2.47;;;;;;;24.04;64.32;96583.00;5020082;28;20223;-79
2022/07/11 10:46:05;;;;;;;3.78;2.28;;;;;;;24.20;65.78;96577.94;5033905;28;20311;-79
2022/07/11 10:48:34;;;;;;;2.63;2.42;;;;;;;24.37;64.15;96588.34;5020428;28;20259;-79
2022/07/11 10:51:11;;;;;;;6.82;2.20;;;;;;;24.43;63.56;96590.66;5047120;28;20217;-79
2022/07/11 10:53:46;;;;;;;2.50;2.30;;;;;;;24.62;62.64;96587.72;5015283;28;20207;-79
2022/07/11 10:56:43;;;;;;;4.30;2.40;;;;;;;24.84;62.17;96584.13;5054480;28;20227;-79
2022/07/11 10:59:15;;;;;;;4.80;2.60;;;;;;;24.76;61.83;96591.22;5021765;28;20231;-79
2022/07/11 11:02:05;;;;;;;5.00;2.78;;;;;;;24.83;62.52;96583.34;5013872;28;20238;-79
2022/07/11 11:04:57;;;;;;;2.60;2.20;;;;;;;24.92;61.93;96583.41;5028093;28;20227;-79
2022/07/11 11:07:36;;;;;;;2.80;2.60;;;;;;;25.11;61.06;96583.16;5026409;28;20218;-79
2022/07/11 11:10:23;;;;;;;3.42;2.15;;;;;;;25.20;61.28;96587.59;5033176;28;20219;-79
2022/07/11 11:13:14;;;;;;;2.50;2.20;;;;;;;25.35;60.31;96586.34;5037125;28;20302;-78
2022/07/11 11:15:47;;;;;;;3.58;2.40;;;;;;;25.15;60.01;96589.69;5025417;28;20206;-77
2022/07/11 11:18:43;;;;;;;3.35;2.45;;;;;;;25.16;60.16;96580.28;5028841;28;20252;-77
2022/07/11 11:21:24;;;;;;;3.08;2.47;;;;;;;25.37;59.62;96580.53;5041644;28;20218;-78
2022/07/11 11:24:10;;;;;;;4.00;2.92;;;;;;;25.27;59.94;96582.44;5033151;28;20207;-78
2022/07/11 11:26:50;;;;;;;3.13;2.30;;;;;;;25.35;58.19;96582.81;5018425;28;20222;-77
2022/07/11 11:29:29;;;;;;;3.42;2.35;;;;;;;25.35;58.34;96572.53;5021216;28;20230;-78
2022/07/11 11:32:00;;;;;;;3.40;2.92;;;;;;;25.30;61.12;96572.69;5021295;28;20208;-77
2022/07/11 11:34:28;;;;;;;3.30;2.20;;;;;;;25.42;59.29;96561.84;5023528;28;20203;-77
2022/07/11 11:37:00;;;;;;;3.17;2.40;;;;;;;25.54;60.67;96564.81;5027582;28;20218;-77
2022/07/11 11:39:30;;;;;;;5.60;2.63;;;;;;;25.66;58.51;96560.66;5019381;28;20195;-77
2022/07/11 11:42:09;;;;;;;3.83;2.50;;;;;;;25.72;59.32;96567.66;5027424;28;20218;-79
2022/07/11 11:44:49;;;;;;;2.83;2.55;;;;;;;25.75;59.68;96558.72;5029418;28;20218;-80